Data for 03/31/2006

Time Sea-Level Adjusted Pressure Absolute Pressure Temperature Relative Humidity Dew Point   
(mb) (inHg) (mb) (inHg) (C) (F) (%) (C) (F)
00:05 1015 29.97 844 24.92 2.3 36.1 70 -2.5 27.5
00:10 1015 29.97 844 24.92 2.3 36.2 71 -2.5 27.6
00:15 1015 29.97 844 24.92 2.4 36.3 70 -2.5 27.5
00:20 1015 29.97 844 24.92 2.6 36.7 68 -2.6 27.3
00:25 1015 29.97 844 24.92 2.6 36.6 71 -2.2 28.1
00:30 1015 29.97 844 24.92 2.4 36.2 73 -2.1 28.3
00:35 1015 29.97 844 24.92 2.3 36.1 73 -2.1 28.3
00:40 1015 29.97 844 24.92 2 35.7 74 -2.1 28.2
00:45 1015 29.97 844 24.92 1.9 35.4 74 -2.2 28.1
00:50 1015 29.97 844 24.92 1.8 35.3 75 -2.1 28.3
00:55 1015 29.97 844 24.92 2 35.7 72 -2.4 27.6
01:00 1015 29.97 844 24.92 2.4 36.3 72 -2.2 28
01:05 1015 29.97 844 24.92 2.5 36.4 71 -2.3 27.8
01:10 1015 29.97 844 24.92 2.6 36.6 70 -2.3 27.8
01:15 1015 29.97 844 24.92 2.5 36.5 72 -2.1 28.2
01:20 1015 29.97 844 24.92 2.1 35.7 74 -2.1 28.1
01:25 1015 29.97 844 24.92 2.3 36.1 72 -2.3 27.9
01:30 1015 29.97 844 24.92 2.4 36.2 71 -2.4 27.7
01:35 1015 29.97 844 24.92 2.6 36.6 70 -2.4 27.6
01:40 1015 29.97 844 24.92 2.5 36.6 70 -2.3 27.8
01:45 1015 29.97 844 24.92 2.7 36.9 69 -2.4 27.6
01:50 1015 29.97 844 24.92 2.8 37.1 69 -2.4 27.7
01:55 1015 29.97 844 24.92 2.5 36.6 70 -2.4 27.6
02:00 1015 29.97 844 24.92 2.5 36.6 70 -2.4 27.7
02:05 1015 29.97 844 24.92 2.6 36.7 69 -2.5 27.6
02:10 1015 29.97 844 24.92 2.5 36.5 70 -2.5 27.6
02:15 1015 29.97 844 24.92 2.3 36.1 71 -2.5 27.5
02:20 1015 29.97 844 24.92 2.2 36 71 -2.5 27.5
02:25 1015 29.97 844 24.92 2.2 35.9 71 -2.4 27.6
02:30 1015 29.97 844 24.92 2.2 35.9 70 -2.8 27
02:35 1015 29.97 844 24.92 2.2 36 71 -2.5 27.4
02:40 1015 29.97 844 24.92 2 35.5 72 -2.6 27.3
02:45 1015 29.97 844 24.92 2 35.5 71 -2.7 27.2
02:50 1015 29.97 844 24.92 1.9 35.4 72 -2.6 27.3
02:55 1015 29.97 844 24.92 1.8 35.3 71 -2.8 26.9
03:00 1015 29.97 844 24.92 1.8 35.2 72 -2.8 27
03:05 1015 29.97 844 24.92 1.7 35 73 -2.7 27.2
03:10 1014 29.94 844 24.92 1.8 35.3 71 -2.9 26.8
03:15 1014 29.94 844 24.92 2 35.7 70 -2.8 26.9
03:20 1014 29.94 844 24.92 2.1 35.9 70 -2.8 26.9
03:25 1014 29.94 844 24.92 1.9 35.3 71 -2.9 26.8
03:30 1014 29.94 843 24.89 1.9 35.5 71 -2.8 27
03:35 1014 29.94 843 24.89 1.7 35 72 -2.9 26.9
03:40 1014 29.94 843 24.89 1.5 34.7 73 -2.8 26.9
03:45 1014 29.94 843 24.89 1.3 34.3 74 -2.9 26.8
03:50 1014 29.94 843 24.89 1.3 34.4 73 -3 26.6
03:55 1014 29.94 843 24.89 1.1 34 74 -3 26.6
04:00 1014 29.94 843 24.89 1.2 34.1 74 -3 26.6
04:05 1014 29.94 843 24.89 1.2 34.1 74 -3 26.5
04:10 1014 29.94 843 24.89 1.2 34.2 73 -3.2 26.3
04:15 1014 29.94 843 24.89 1.3 34.3 73 -3.1 26.4
04:20 1014 29.94 843 24.89 1.2 34.2 72 -3.2 26.2
04:25 1014 29.94 843 24.89 1.4 34.6 72 -3 26.5
04:30 1014 29.94 843 24.89 1.4 34.6 72 -3.1 26.4
04:35 1014 29.94 843 24.89 1.3 34.3 72 -3.2 26.3
04:40 1014 29.94 843 24.89 1.3 34.4 71 -3.3 26.1
04:45 1014 29.94 843 24.89 1.5 34.7 70 -3.3 26.1
04:50 1014 29.94 843 24.89 1.6 34.9 71 -3 26.6
04:55 1014 29.94 843 24.89 1.5 34.7 71 -3.3 26.1
05:00 1014 29.94 843 24.89 1.7 35 70 -3.2 26.3
05:05 1014 29.94 843 24.89 1.7 35 70 -3.2 26.2
05:10 1014 29.94 843 24.89 1.6 34.8 71 -3.2 26.2
05:15 1014 29.94 843 24.89 1.5 34.7 71 -3.2 26.2
05:20 1014 29.94 843 24.89 1.6 34.9 70 -3.2 26.2
05:25 1014 29.94 843 24.89 1.4 34.5 71 -3.3 26
05:30 1014 29.94 843 24.89 1.5 34.7 70 -3.4 25.9
05:35 1014 29.94 843 24.89 1.4 34.6 71 -3.3 26.1
05:40 1014 29.94 843 24.89 1.3 34.4 71 -3.4 25.9
05:45 1014 29.94 843 24.89 1.3 34.4 71 -3.4 25.9
05:50 1014 29.94 843 24.89 1.6 34.9 69 -3.4 25.8
05:55 1014 29.94 843 24.89 1.5 34.7 70 -3.3 26
06:00 1014 29.94 843 24.89 1.5 34.6 69 -3.5 25.7
06:05 1014 29.94 843 24.89 1.4 34.5 70 -3.5 25.7
06:10 1014 29.94 843 24.89 1.5 34.6 70 -3.4 25.9
06:15 1014 29.94 843 24.89 1.2 34.1 72 -3.4 25.9
06:20 1014 29.94 843 24.89 1.2 34.2 71 -3.5 25.7
06:25 1014 29.94 843 24.89 1.5 34.7 69 -3.5 25.7
06:30 1014 29.94 843 24.89 1.6 34.8 69 -3.5 25.8
06:35 1014 29.94 843 24.89 1.7 35 69 -3.3 26
06:40 1014 29.94 843 24.89 1.6 34.9 69 -3.5 25.6
06:45 1014 29.94 843 24.89 2 35.6 68 -3.3 26
06:50 1014 29.94 843 24.89 1.8 35.3 69 -3.2 26.3
06:55 1014 29.94 843 24.89 1.8 35.2 69 -3.4 25.9
07:00 1014 29.94 843 24.89 1.8 35.2 70 -3.2 26.3
07:05 1014 29.94 843 24.89 1.7 35.1 69 -3.3 26
07:10 1014 29.94 843 24.89 1.8 35.3 69 -3.2 26.3
07:15 1014 29.94 843 24.89 1.9 35.5 68 -3.4 25.9
07:20 1014 29.94 843 24.89 2.2 35.9 66 -3.4 25.8
07:25 1014 29.94 843 24.89 2.5 36.4 67 -3 26.5
07:30 1014 29.94 843 24.89 2.5 36.5 67 -3 26.7
07:35 1014 29.94 843 24.89 2.6 36.7 67 -3 26.7
07:40 1014 29.94 843 24.89 2.6 36.7 67 -2.9 26.7
07:45 1014 29.94 843 24.89 2.8 37 65 -3.2 26.2
07:50 1014 29.94 843 24.89 2.9 37.2 65 -3.1 26.4
07:55 1014 29.94 843 24.89 3.2 37.7 63 -3.2 26.3
08:00 1014 29.94 843 24.89 3.8 38.9 60 -3.3 26.1
08:05 1014 29.94 843 24.89 4.4 39.9 57 -3.3 26
08:10 1014 29.94 843 24.89 4.6 40.4 57 -3.2 26.3
08:15 1014 29.94 843 24.89 4.7 40.4 59 -2.6 27.2
08:20 1014 29.94 843 24.89 4.5 40.1 56 -3.4 25.8
08:25 1014 29.94 843 24.89 4.5 40 59 -2.8 27
08:30 1014 29.94 843 24.89 4.3 39.7 57 -3.4 25.9
08:35 1014 29.94 843 24.89 4.6 40.3 59 -2.8 26.9
08:40 1014 29.94 843 24.89 4.5 40.2 60 -2.6 27.2
08:45 1014 29.94 843 24.89 4.5 40.1 58 -3 26.5
08:50 1014 29.94 843 24.89 4.6 40.3 59 -2.8 26.9
08:55 1014 29.94 843 24.89 4.7 40.5 57 -3 26.6
09:00 1014 29.94 843 24.89 5.1 41.2 54 -3.4 26
09:05 1014 29.94 843 24.89 5.5 42 54 -3.1 26.4
09:10 1014 29.94 843 24.89 5.7 42.3 54 -2.9 26.8
09:15 1014 29.94 843 24.89 5.9 42.6 54 -2.7 27.1
09:20 1014 29.94 843 24.89 6.1 42.9 54 -2.7 27.2
09:25 1014 29.94 843 24.89 6 42.8 55 -2.3 27.9
09:30 1014 29.94 843 24.89 6.1 43 53 -2.8 27
09:35 1014 29.94 843 24.89 6 42.8 53 -2.7 27.1
09:40 1013 29.91 843 24.89 6.1 43 53 -2.8 27
09:45 1014 29.94 843 24.89 6.3 43.3 52 -2.8 26.9
09:50 1013 29.91 843 24.89 6.5 43.6 52 -2.7 27.1
09:55 1013 29.91 843 24.89 6.8 44.2 49 -3.3 26
10:00 1013 29.91 843 24.89 6.6 43.9 48 -3.6 25.5
10:05 1013 29.91 843 24.89 6.9 44.5 47 -3.7 25.4
10:10 1014 29.94 843 24.89 7.4 45.4 45 -3.7 25.4
10:15 1014 29.94 843 24.89 7.4 45.4 46 -3.5 25.7
10:20 1014 29.94 843 24.89 7.6 45.7 43 -4.1 24.7
10:25 1013 29.91 843 24.89 7.6 45.7 42 -4.4 24.1
10:30 1013 29.91 843 24.89 7.5 45.5 43 -4.3 24.3
10:35 1013 29.91 843 24.89 7.6 45.6 42 -4.4 24.1
10:40 1013 29.91 843 24.89 7.8 46 42 -4.4 24.2
10:45 1013 29.91 842 24.86 8 46.3 42 -4.2 24.5
10:50 1013 29.91 842 24.86 8 46.4 41 -4.5 24
10:55 1013 29.91 842 24.86 8.4 47.1 40 -4.5 23.9
11:00 1013 29.91 842 24.86 8.4 47.2 37 -5.5 22.1
11:05 1013 29.91 842 24.86 8.2 46.8 40 -4.5 23.9
11:10 1013 29.91 842 24.86 8.7 47.7 39 -4.6 23.7
11:15 1013 29.91 842 24.86 8.8 47.8 39 -4.5 24
11:20 1013 29.91 842 24.86 9.1 48.3 36 -5.3 22.5
11:25 1013 29.91 842 24.86 9.8 49.6 34 -5.3 22.4
11:30 1013 29.91 842 24.86 9.6 49.3 34 -5.3 22.4
11:35 1013 29.91 842 24.86 10 50 33 -5.6 21.9
11:40 1013 29.91 842 24.86 10.4 50.8 33 -5.2 22.6
11:45 1012 29.88 842 24.86 10 50.1 33 -5.4 22.4
11:50 1012 29.88 842 24.86 9.6 49.4 33 -5.8 21.6
11:55 1012 29.88 842 24.86 9.4 48.9 35 -5.3 22.4
12:00 1012 29.88 841 24.83 9.7 49.4 33 -5.7 21.7
12:05 1012 29.88 841 24.83 9.4 48.9 34 -5.6 21.9
12:10 1012 29.88 841 24.83 9.5 49.2 34 -5.6 21.8
12:15 1012 29.88 841 24.83 9.7 49.4 34 -5.5 22.1
12:20 1012 29.88 841 24.83 9.9 49.8 34 -5.3 22.5
12:25 1012 29.88 841 24.83 9.9 49.7 33 -5.5 22.1
12:30 1012 29.88 841 24.83 10.3 50.5 34 -4.9 23.2
12:35 1012 29.88 841 24.83 10.4 50.8 32 -5.3 22.4
12:40 1012 29.88 841 24.83 10.5 50.9 33 -5.2 22.7
12:45 1012 29.88 841 24.83 11 51.8 34 -4.4 24.2
12:50 1012 29.88 841 24.83 11 51.7 35 -4 24.9
12:55 1012 29.88 841 24.83 11.4 52.5 31 -5.2 22.6
13:00 1012 29.88 841 24.83 11.1 52.1 32 -4.9 23.3
13:05 1012 29.88 841 24.83 11.1 51.9 33 -4.5 23.8
13:10 1012 29.88 841 24.83 10.6 51.1 37 -3.6 25.5
13:15 1012 29.88 841 24.83 10.9 51.5 31 -5.5 22.1
13:20 1012 29.88 841 24.83 10.5 50.9 34 -4.6 23.7
13:25 1012 29.88 841 24.83 10.9 51.6 32 -5.1 22.9
13:30 1011 29.85 841 24.83 10.8 51.4 32 -5.3 22.4
13:35 1011 29.85 841 24.83 11.1 52 31 -5.3 22.5
13:40 1011 29.85 841 24.83 11.3 52.3 31 -5.2 22.7
13:45 1011 29.85 841 24.83 11.2 52.1 31 -5.2 22.6
13:50 1011 29.85 841 24.83 11.2 52.1 33 -4.5 23.9
13:55 1011 29.85 840 24.81 11.2 52.1 32 -4.9 23.1
14:00 1011 29.85 840 24.81 11.2 52.2 32 -4.8 23.4
14:05 1011 29.85 840 24.81 11.4 52.4 35 -3.5 25.7
14:10 1011 29.85 840 24.81 11.3 52.4 33 -4.3 24.3
14:15 1011 29.85 840 24.81 11.1 52 33 -4.7 23.5
14:20 1011 29.85 840 24.81 11.4 52.4 31 -4.9 23.1
14:25 1011 29.85 840 24.81 11.3 52.3 32 -4.9 23.2
14:30 1011 29.85 840 24.81 11.7 53 33 -4.1 24.7
14:35 1011 29.85 840 24.81 11 51.8 32 -5 22.9
14:40 1011 29.85 840 24.81 10.6 51.1 32 -5.5 22
14:45 1011 29.85 840 24.81 10.7 51.2 33 -5 23
14:50 1011 29.85 840 24.81 10.9 51.7 33 -4.8 23.3
14:55 1011 29.85 840 24.81 10.7 51.3 35 -4 24.8
15:00 1011 29.85 840 24.81 10.7 51.2 35 -4.2 24.5
15:05 1011 29.85 840 24.81 10.7 51.3 35 -3.9 24.9
15:10 1011 29.85 840 24.81 10.9 51.6 34 -4.5 23.8
15:15 1011 29.85 840 24.81 11 51.8 33 -4.7 23.6
15:20 1011 29.85 840 24.81 10.9 51.7 34 -4.4 24
15:25 1011 29.85 840 24.81 10.8 51.4 35 -4.2 24.4
15:30 1011 29.85 840 24.81 10.8 51.5 34 -4.3 24.3
15:35 1011 29.85 840 24.81 10.9 51.5 34 -4.2 24.5
15:40 1011 29.85 840 24.81 10.9 51.5 38 -2.9 26.7
15:45 1011 29.85 840 24.81 11.1 52 34 -4.2 24.5
15:50 1011 29.85 840 24.81 10.9 51.6 35 -4 24.9
15:55 1011 29.85 840 24.81 10.7 51.3 35 -3.9 24.9
16:00 1011 29.85 840 24.81 10.7 51.2 35 -4.2 24.4
16:05 1011 29.85 840 24.81 10.4 50.8 35 -4.4 24.1
16:10 1011 29.85 840 24.81 10.7 51.3 34 -4.6 23.7
16:15 1011 29.85 840 24.81 10.5 51 36 -3.9 25
16:20 1011 29.85 840 24.81 10.5 50.9 38 -3.2 26.3
16:25 1011 29.85 840 24.81 10.4 50.8 40 -2.7 27.2
16:30 1011 29.85 840 24.81 10.3 50.5 35 -4.3 24.2
16:35 1011 29.85 840 24.81 10 50 40 -3 26.5
16:40 1011 29.85 840 24.81 10.1 50.2 41 -2.4 27.7
16:45 1011 29.85 840 24.81 10.1 50.1 41 -2.5 27.5
16:50 1011 29.85 840 24.81 9.8 49.7 41 -2.6 27.2
16:55 1011 29.85 840 24.81 9.8 49.7 41 -2.7 27.1
17:00 1011 29.85 840 24.81 9.6 49.3 43 -2.2 28
17:05 1011 29.85 840 24.81 9.3 48.7 45 -2 28.4
17:10 1011 29.85 840 24.81 9.1 48.3 46 -1.8 28.8
17:15 1011 29.85 840 24.81 9 48.1 48 -1.4 29.5
17:20 1011 29.85 840 24.81 8.7 47.7 48 -1.8 28.8
17:25 1011 29.85 840 24.81 8.7 47.6 48 -1.7 29
17:30 1011 29.85 840 24.81 8.7 47.7 49 -1.5 29.4
17:35 1011 29.85 840 24.81 8.6 47.5 50 -1.3 29.7
17:40 1011 29.85 840 24.81 8.6 47.5 47 -2.1 28.2
17:45 1011 29.85 840 24.81 8.7 47.6 48 -1.8 28.8
17:50 1011 29.85 840 24.81 8.8 47.9 46 -2.1 28.3
17:55 1011 29.85 840 24.81 8.8 47.8 47 -1.9 28.5
18:00 1011 29.85 840 24.81 8.6 47.6 49 -1.4 29.4
18:05 1011 29.85 840 24.81 8.4 47.2 52 -0.8 30.5
18:10 1011 29.85 840 24.81 8.1 46.6 52 -1.2 29.9
18:15 1011 29.85 840 24.81 7.8 46.1 52 -1.4 29.5
18:20 1011 29.85 840 24.81 7.7 45.9 51 -1.7 29
18:25 1011 29.85 840 24.81 7.8 46 50 -1.9 28.6
18:30 1011 29.85 840 24.81 7.7 45.9 50 -1.9 28.5
18:35 1011 29.85 840 24.81 7.6 45.7 53 -1.4 29.4
18:40 1011 29.85 840 24.81 7.5 45.4 52 -1.9 28.7
18:45 1011 29.85 840 24.81 7.5 45.5 51 -2 28.5
18:50 1011 29.85 840 24.81 7.4 45.4 53 -1.4 29.4
18:55 1011 29.85 840 24.81 7.3 45.2 53 -1.5 29.3
19:00 1011 29.85 840 24.81 7.4 45.2 56 -0.9 30.4
19:05 1011 29.85 840 24.81 7.1 44.8 56 -1.1 30
19:10 1011 29.85 840 24.81 7 44.6 55 -1.3 29.7
19:15 1011 29.85 840 24.81 6.9 44.4 56 -1.2 29.8
19:20 1011 29.85 840 24.81 6.8 44.3 56 -1.3 29.6
19:25 1011 29.85 840 24.81 6.8 44.3 56 -1.4 29.6
19:30 1011 29.85 840 24.81 6.7 44.1 56 -1.3 29.7
19:35 1011 29.85 840 24.81 6.9 44.5 55 -1.6 29.2
19:40 1011 29.85 840 24.81 7.3 45.1 53 -1.6 29.2
19:45 1011 29.85 840 24.81 7.5 45.6 53 -1.5 29.3
19:50 1011 29.85 840 24.81 7.7 45.9 52 -1.5 29.3
19:55 1011 29.85 840 24.81 7.7 45.8 53 -1.2 29.8
20:00 1011 29.85 840 24.81 7.6 45.8 53 -1.2 29.8
20:05 1011 29.85 840 24.81 7.5 45.5 54 -1.3 29.7
20:10 1011 29.85 840 24.81 7.4 45.4 53 -1.5 29.3
20:15 1011 29.85 840 24.81 7.4 45.4 54 -1.4 29.5
20:20 1011 29.85 840 24.81 7.3 45.2 54 -1.3 29.7
20:25 1011 29.85 840 24.81 7.2 44.9 55 -1.1 29.9
20:30 1011 29.85 840 24.81 7.1 44.7 56 -1.2 29.9
20:35 1011 29.85 840 24.81 7 44.5 56 -1.1 30
20:40 1011 29.85 840 24.81 6.5 43.7 59 -0.9 30.3
20:45 1011 29.85 840 24.81 6.2 43.2 60 -1 30.2
20:50 1011 29.85 840 24.81 6.1 42.9 60 -1.2 29.8
20:55 1011 29.85 840 24.81 6.1 42.9 59 -1.4 29.4
21:00 1011 29.85 840 24.81 6.2 43.1 58 -1.4 29.5
21:05 1011 29.85 840 24.81 6.1 43 59 -1.3 29.7
21:10 1011 29.85 840 24.81 5.5 42 61 -1.4 29.5
21:15 1011 29.85 840 24.81 5.4 41.6 60 -1.7 28.9
21:20 1011 29.85 840 24.81 5.4 41.8 60 -1.6 29.1
21:25 1011 29.85 840 24.81 5.4 41.7 59 -1.9 28.6
21:30 1011 29.85 840 24.81 5.4 41.8 59 -1.9 28.5
21:35 1011 29.85 840 24.81 5.4 41.8 60 -1.8 28.8
21:40 1011 29.85 840 24.81 5.4 41.7 60 -1.7 28.9
21:45 1011 29.85 840 24.81 5.3 41.6 60 -1.7 28.9
21:50 1011 29.85 840 24.81 5.3 41.5 62 -1.5 29.3
21:55 1011 29.85 840 24.81 5.3 41.5 61 -1.6 29.1
22:00 1011 29.85 840 24.81 5.1 41.2 62 -1.6 29.2
22:05 1011 29.85 840 24.81 5.2 41.4 61 -1.7 29
22:10 1011 29.85 840 24.81 5.2 41.3 62 -1.6 29.1
22:15 1011 29.85 840 24.81 4.9 40.9 64 -1.4 29.6
22:20 1011 29.85 840 24.81 4.9 40.9 62 -1.7 28.9
22:25 1011 29.85 840 24.81 5 40.9 64 -1.4 29.5
22:30 1011 29.85 840 24.81 4.9 40.9 63 -1.5 29.3
22:35 1011 29.85 840 24.81 4.8 40.6 64 -1.4 29.5
22:40 1011 29.85 840 24.81 4.7 40.4 64 -1.5 29.4
22:45 1011 29.85 840 24.81 4.6 40.3 64 -1.6 29.1
22:50 1011 29.85 840 24.81 4.7 40.4 65 -1.3 29.7
22:55 1011 29.85 840 24.81 4.7 40.4 65 -1.4 29.6
23:00 1011 29.85 840 24.81 4.6 40.4 65 -1.4 29.4
23:05 1011 29.85 840 24.81 4.7 40.5 64 -1.5 29.4
23:10 1011 29.85 840 24.81 4.6 40.4 65 -1.3 29.7
23:15 1011 29.85 840 24.81 4.5 40 66 -1.3 29.6
23:20 1011 29.85 840 24.81 4.4 39.8 66 -1.4 29.5
23:25 1011 29.85 840 24.81 4.5 40 66 -1.3 29.6
23:30 1011 29.85 840 24.81 4.5 40.2 65 -1.6 29.2
23:35 1011 29.85 840 24.81 4.8 40.6 65 -1.3 29.6
23:40 1011 29.85 840 24.81 4.9 40.8 64 -1.3 29.7
23:45 1011 29.85 840 24.81 4.8 40.7 64 -1.4 29.5
23:50 1011 29.85 840 24.81 4.9 40.8 63 -1.5 29.3
23:55 1011 29.85 840 24.81 4.8 40.7 64 -1.3 29.7
24:00 1011 29.85 840 24.81 4.6 40.2 66 -1.2 29.8